sensor_id;sensor_type;location;lat;lon;timestamp;temperature;humidity
25811;DHT22;13645;52.460;13.910;2023-09-19T00:00:47;18.00;99.90
25811;DHT22;13645;52.460;13.910;2023-09-19T00:03:15;18.00;99.90
25811;DHT22;13645;52.460;13.910;2023-09-19T00:05:42;18.00;99.90
25811;DHT22;13645;52.460;13.910;2023-09-19T00:08:13;18.00;99.90
25811;DHT22;13645;52.460;13.910;2023-09-19T00:10:40;18.00;99.90
25811;DHT22;13645;52.460;13.910;2023-09-19T00:13:09;18.00;99.90
25811;DHT22;13645;52.460;13.910;2023-09-19T00:15:45;17.90;99.90
25811;DHT22;13645;52.460;13.910;2023-09-19T00:18:20;18.00;99.90
25811;DHT22;13645;52.460;13.910;2023-09-19T00:20:49;18.00;99.90
25811;DHT22;13645;52.460;13.910;2023-09-19T00:23:18;17.90;99.90
25811;DHT22;13645;52.460;13.910;2023-09-19T00:25:46;17.90;99.90
25811;DHT22;13645;52.460;13.910;2023-09-19T00:28:13;18.00;99.90
25811;DHT22;13645;52.460;13.910;2023-09-19T00:30:43;17.90;99.90
25811;DHT22;13645;52.460;13.910;2023-09-19T00:33:16;17.90;99.90
25811;DHT22;13645;52.460;13.910;2023-09-19T00:35:51;17.80;99.90
25811;DHT22;13645;52.460;13.910;2023-09-19T00:38:22;17.80;99.90
25811;DHT22;13645;52.460;13.910;2023-09-19T00:40:54;17.70;99.90
25811;DHT22;13645;52.460;13.910;2023-09-19T00:43:26;17.70;99.90
25811;DHT22;13645;52.460;13.910;2023-09-19T00:46:01;17.70;99.90
25811;DHT22;13645;52.460;13.910;2023-09-19T00:48:31;17.70;99.90
25811;DHT22;13645;52.460;13.910;2023-09-19T00:51:02;17.70;99.90
25811;DHT22;13645;52.460;13.910;2023-09-19T00:53:31;17.80;99.90
25811;DHT22;13645;52.460;13.910;2023-09-19T00:55:58;17.70;99.90
25811;DHT22;13645;52.460;13.910;2023-09-19T00:58:28;17.70;99.90
25811;DHT22;13645;52.460;13.910;2023-09-19T01:01:05;17.70;99.90
25811;DHT22;13645;52.460;13.910;2023-09-19T01:03:37;17.70;99.90
25811;DHT22;13645;52.460;13.910;2023-09-19T01:06:13;17.60;99.90
25811;DHT22;13645;52.460;13.910;2023-09-19T01:08:40;17.60;99.90
25811;DHT22;13645;52.460;13.910;2023-09-19T01:11:31;17.60;99.90
25811;DHT22;13645;52.460;13.910;2023-09-19T01:17:00;17.60;99.90
25811;DHT22;13645;52.460;13.910;2023-09-19T01:23:00;17.50;99.90
25811;DHT22;13645;52.460;13.910;2023-09-19T01:25:46;17.50;99.90
25811;DHT22;13645;52.460;13.910;2023-09-19T01:31:21;17.50;99.90
25811;DHT22;13645;52.460;13.910;2023-09-19T01:34:01;17.50;99.90
25811;DHT22;13645;52.460;13.910;2023-09-19T01:36:36;17.50;99.90
25811;DHT22;13645;52.460;13.910;2023-09-19T01:39:11;17.50;99.90
25811;DHT22;13645;52.460;13.910;2023-09-19T01:47:38;17.40;99.90
25811;DHT22;13645;52.460;13.910;2023-09-19T01:50:17;17.40;99.90
25811;DHT22;13645;52.460;13.910;2023-09-19T01:52:57;17.30;99.90
25811;DHT22;13645;52.460;13.910;2023-09-19T01:55:26;17.20;99.90
25811;DHT22;13645;52.460;13.910;2023-09-19T01:58:08;17.20;99.90
25811;DHT22;13645;52.460;13.910;2023-09-19T02:00:41;17.20;99.90
25811;DHT22;13645;52.460;13.910;2023-09-19T02:03:13;17.20;99.90
25811;DHT22;13645;52.460;13.910;2023-09-19T02:05:48;17.10;99.90
25811;DHT22;13645;52.460;13.910;2023-09-19T02:08:18;17.10;99.90
25811;DHT22;13645;52.460;13.910;2023-09-19T02:10:48;17.10;99.90
25811;DHT22;13645;52.460;13.910;2023-09-19T02:13:17;17.10;99.90
25811;DHT22;13645;52.460;13.910;2023-09-19T02:15:49;17.10;99.90
25811;DHT22;13645;52.460;13.910;2023-09-19T02:18:15;17.10;99.90
25811;DHT22;13645;52.460;13.910;2023-09-19T02:20:53;17.10;99.90
25811;DHT22;13645;52.460;13.910;2023-09-19T02:23:20;17.00;99.90
25811;DHT22;13645;52.460;13.910;2023-09-19T02:25:59;17.00;99.90
25811;DHT22;13645;52.460;13.910;2023-09-19T02:28:30;17.00;99.90
25811;DHT22;13645;52.460;13.910;2023-09-19T02:30:59;17.00;99.90
25811;DHT22;13645;52.460;13.910;2023-09-19T02:33:26;17.00;99.90
25811;DHT22;13645;52.460;13.910;2023-09-19T02:35:56;17.00;99.90
25811;DHT22;13645;52.460;13.910;2023-09-19T02:38:31;17.10;99.90
25811;DHT22;13645;52.460;13.910;2023-09-19T02:40:58;17.00;99.90
25811;DHT22;13645;52.460;13.910;2023-09-19T02:43:25;17.00;99.90
25811;DHT22;13645;52.460;13.910;2023-09-19T02:45:52;16.90;99.90
25811;DHT22;13645;52.460;13.910;2023-09-19T02:48:25;16.90;99.90
25811;DHT22;13645;52.460;13.910;2023-09-19T02:50:52;16.90;99.90
25811;DHT22;13645;52.460;13.910;2023-09-19T02:53:19;16.90;99.90
25811;DHT22;13645;52.460;13.910;2023-09-19T02:55:55;16.80;99.90
25811;DHT22;13645;52.460;13.910;2023-09-19T02:58:22;16.80;99.90
25811;DHT22;13645;52.460;13.910;2023-09-19T03:00:51;16.90;99.90
25811;DHT22;13645;52.460;13.910;2023-09-19T03:03:18;17.00;99.90
25811;DHT22;13645;52.460;13.910;2023-09-19T03:05:46;16.90;99.90
25811;DHT22;13645;52.460;13.910;2023-09-19T03:08:14;16.90;99.90
25811;DHT22;13645;52.460;13.910;2023-09-19T03:10:48;16.90;99.90
25811;DHT22;13645;52.460;13.910;2023-09-19T03:13:17;16.80;99.90
25811;DHT22;13645;52.460;13.910;2023-09-19T03:15:44;16.90;99.90
25811;DHT22;13645;52.460;13.910;2023-09-19T03:18:17;16.80;99.90
25811;DHT22;13645;52.460;13.910;2023-09-19T03:20:55;16.80;99.90
25811;DHT22;13645;52.460;13.910;2023-09-19T03:23:23;16.70;99.90
25811;DHT22;13645;52.460;13.910;2023-09-19T03:25:49;16.70;99.90
25811;DHT22;13645;52.460;13.910;2023-09-19T03:28:17;16.70;99.90
25811;DHT22;13645;52.460;13.910;2023-09-19T03:31:05;16.70;99.90
25811;DHT22;13645;52.460;13.910;2023-09-19T03:33:32;16.70;99.90
25811;DHT22;13645;52.460;13.910;2023-09-19T03:36:01;16.60;99.90
25811;DHT22;13645;52.460;13.910;2023-09-19T03:38:32;16.60;99.90
25811;DHT22;13645;52.460;13.910;2023-09-19T03:41:04;16.60;99.90
25811;DHT22;13645;52.460;13.910;2023-09-19T03:43:32;16.50;99.90
25811;DHT22;13645;52.460;13.910;2023-09-19T03:46:03;16.50;99.90
25811;DHT22;13645;52.460;13.910;2023-09-19T03:48:35;16.50;99.90
25811;DHT22;13645;52.460;13.910;2023-09-19T03:51:03;16.50;99.90
25811;DHT22;13645;52.460;13.910;2023-09-19T03:53:34;16.50;99.90
25811;DHT22;13645;52.460;13.910;2023-09-19T03:56:09;16.50;99.90
25811;DHT22;13645;52.460;13.910;2023-09-19T03:58:36;16.50;99.90
25811;DHT22;13645;52.460;13.910;2023-09-19T04:01:16;16.50;99.90
25811;DHT22;13645;52.460;13.910;2023-09-19T04:03:45;16.50;99.90
25811;DHT22;13645;52.460;13.910;2023-09-19T04:06:17;16.50;99.90
25811;DHT22;13645;52.460;13.910;2023-09-19T04:08:48;16.50;99.90
25811;DHT22;13645;52.460;13.910;2023-09-19T04:11:18;16.40;99.90
25811;DHT22;13645;52.460;13.910;2023-09-19T04:13:45;16.50;99.90
25811;DHT22;13645;52.460;13.910;2023-09-19T04:16:12;16.50;99.90
25811;DHT22;13645;52.460;13.910;2023-09-19T04:18:39;16.50;99.90
25811;DHT22;13645;52.460;13.910;2023-09-19T04:21:09;16.50;99.90
25811;DHT22;13645;52.460;13.910;2023-09-19T04:23:39;16.60;99.90
25811;DHT22;13645;52.460;13.910;2023-09-19T04:26:07;16.60;99.90
25811;DHT22;13645;52.460;13.910;2023-09-19T04:28:37;16.60;99.90
25811;DHT22;13645;52.460;13.910;2023-09-19T04:31:05;16.60;99.90
25811;DHT22;13645;52.460;13.910;2023-09-19T04:33:34;16.60;99.90
25811;DHT22;13645;52.460;13.910;2023-09-19T04:36:02;16.70;99.90
25811;DHT22;13645;52.460;13.910;2023-09-19T04:38:52;16.70;99.90
25811;DHT22;13645;52.460;13.910;2023-09-19T04:41:23;16.80;99.90
25811;DHT22;13645;52.460;13.910;2023-09-19T04:43:51;16.90;99.90
25811;DHT22;13645;52.460;13.910;2023-09-19T04:46:18;16.80;99.90
25811;DHT22;13645;52.460;13.910;2023-09-19T04:48:48;16.90;99.90
25811;DHT22;13645;52.460;13.910;2023-09-19T04:51:14;16.90;99.90
25811;DHT22;13645;52.460;13.910;2023-09-19T04:53:41;16.90;99.90
25811;DHT22;13645;52.460;13.910;2023-09-19T04:56:14;16.90;99.90
25811;DHT22;13645;52.460;13.910;2023-09-19T04:58:41;16.90;99.90
25811;DHT22;13645;52.460;13.910;2023-09-19T05:01:15;16.90;99.90
25811;DHT22;13645;52.460;13.910;2023-09-19T05:03:51;16.90;99.90
25811;DHT22;13645;52.460;13.910;2023-09-19T05:06:24;16.80;99.90
25811;DHT22;13645;52.460;13.910;2023-09-19T05:08:54;16.90;99.90
25811;DHT22;13645;52.460;13.910;2023-09-19T05:11:30;16.80;99.90
25811;DHT22;13645;52.460;13.910;2023-09-19T05:14:06;16.90;99.90
25811;DHT22;13645;52.460;13.910;2023-09-19T05:16:33;16.90;99.90
25811;DHT22;13645;52.460;13.910;2023-09-19T05:19:01;16.80;99.90
25811;DHT22;13645;52.460;13.910;2023-09-19T05:21:28;16.90;99.90
25811;DHT22;13645;52.460;13.910;2023-09-19T05:23:56;16.90;99.90
25811;DHT22;13645;52.460;13.910;2023-09-19T05:26:23;16.90;99.90
25811;DHT22;13645;52.460;13.910;2023-09-19T05:28:50;16.80;99.90
25811;DHT22;13645;52.460;13.910;2023-09-19T05:31:17;16.80;99.90
25811;DHT22;13645;52.460;13.910;2023-09-19T05:33:44;16.80;99.90
25811;DHT22;13645;52.460;13.910;2023-09-19T05:36:10;16.80;99.90
25811;DHT22;13645;52.460;13.910;2023-09-19T05:38:38;16.90;99.90
25811;DHT22;13645;52.460;13.910;2023-09-19T05:41:13;16.90;99.90
25811;DHT22;13645;52.460;13.910;2023-09-19T05:43:43;16.90;99.90
25811;DHT22;13645;52.460;13.910;2023-09-19T05:46:10;16.90;99.90
25811;DHT22;13645;52.460;13.910;2023-09-19T05:48:37;17.00;99.90
25811;DHT22;13645;52.460;13.910;2023-09-19T05:51:06;16.90;99.90
25811;DHT22;13645;52.460;13.910;2023-09-19T05:53:33;16.90;99.90
25811;DHT22;13645;52.460;13.910;2023-09-19T05:56:00;16.80;99.90
25811;DHT22;13645;52.460;13.910;2023-09-19T05:58:30;17.00;99.90
25811;DHT22;13645;52.460;13.910;2023-09-19T06:01:00;17.00;99.90
25811;DHT22;13645;52.460;13.910;2023-09-19T06:03:36;17.00;99.90
25811;DHT22;13645;52.460;13.910;2023-09-19T06:06:04;17.00;99.90
25811;DHT22;13645;52.460;13.910;2023-09-19T06:08:35;17.00;99.90
25811;DHT22;13645;52.460;13.910;2023-09-19T06:11:02;17.00;99.90
25811;DHT22;13645;52.460;13.910;2023-09-19T06:13:29;16.90;99.90
25811;DHT22;13645;52.460;13.910;2023-09-19T06:15:59;16.90;99.90
25811;DHT22;13645;52.460;13.910;2023-09-19T06:18:37;17.00;99.90
25811;DHT22;13645;52.460;13.910;2023-09-19T06:21:07;17.00;92.90
25811;DHT22;13645;52.460;13.910;2023-09-19T06:23:34;17.10;81.20
25811;DHT22;13645;52.460;13.910;2023-09-19T06:26:02;17.10;43.30
25811;DHT22;13645;52.460;13.910;2023-09-19T06:28:35;17.10;27.90
25811;DHT22;13645;52.460;13.910;2023-09-19T06:31:10;17.10;26.30
25811;DHT22;13645;52.460;13.910;2023-09-19T06:33:37;17.10;7.30
25811;DHT22;13645;52.460;13.910;2023-09-19T06:36:10;17.10;22.50
25811;DHT22;13645;52.460;13.910;2023-09-19T06:38:38;17.20;1.00
25811;DHT22;13645;52.460;13.910;2023-09-19T06:41:06;17.20;1.00
25811;DHT22;13645;52.460;13.910;2023-09-19T06:43:35;17.20;1.00
25811;DHT22;13645;52.460;13.910;2023-09-19T06:46:03;17.30;1.00
25811;DHT22;13645;52.460;13.910;2023-09-19T06:48:31;17.40;1.00
25811;DHT22;13645;52.460;13.910;2023-09-19T06:51:00;17.60;1.00
25811;DHT22;13645;52.460;13.910;2023-09-19T06:53:32;17.70;1.00
25811;DHT22;13645;52.460;13.910;2023-09-19T06:55:59;17.80;1.00
25811;DHT22;13645;52.460;13.910;2023-09-19T06:58:27;17.90;1.00
25811;DHT22;13645;52.460;13.910;2023-09-19T07:00:53;18.00;1.00
25811;DHT22;13645;52.460;13.910;2023-09-19T07:03:20;18.00;99.90
25811;DHT22;13645;52.460;13.910;2023-09-19T07:05:49;18.00;99.90
25811;DHT22;13645;52.460;13.910;2023-09-19T07:08:18;18.00;99.90
25811;DHT22;13645;52.460;13.910;2023-09-19T07:10:52;18.10;99.90
25811;DHT22;13645;52.460;13.910;2023-09-19T07:13:20;18.10;99.90
25811;DHT22;13645;52.460;13.910;2023-09-19T07:15:47;18.10;99.90
25811;DHT22;13645;52.460;13.910;2023-09-19T07:18:17;18.10;99.90
25811;DHT22;13645;52.460;13.910;2023-09-19T07:20:44;18.10;99.90
25811;DHT22;13645;52.460;13.910;2023-09-19T07:23:21;18.00;99.90
25811;DHT22;13645;52.460;13.910;2023-09-19T07:25:49;18.10;99.90
25811;DHT22;13645;52.460;13.910;2023-09-19T07:28:17;18.30;99.90
25811;DHT22;13645;52.460;13.910;2023-09-19T07:30:44;18.50;3.90
25811;DHT22;13645;52.460;13.910;2023-09-19T07:33:11;18.50;1.00
25811;DHT22;13645;52.460;13.910;2023-09-19T07:35:38;18.70;1.00
25811;DHT22;13645;52.460;13.910;2023-09-19T07:38:08;19.00;1.00
25811;DHT22;13645;52.460;13.910;2023-09-19T07:40:39;19.20;99.90
25811;DHT22;13645;52.460;13.910;2023-09-19T07:43:09;19.50;1.00
25811;DHT22;13645;52.460;13.910;2023-09-19T07:45:37;19.80;99.90
25811;DHT22;13645;52.460;13.910;2023-09-19T07:48:07;20.10;1.00
25811;DHT22;13645;52.460;13.910;2023-09-19T07:50:40;20.50;1.00
25811;DHT22;13645;52.460;13.910;2023-09-19T07:53:12;20.70;35.90
25811;DHT22;13645;52.460;13.910;2023-09-19T07:55:43;20.90;99.90
25811;DHT22;13645;52.460;13.910;2023-09-19T07:58:10;21.00;1.00
25811;DHT22;13645;52.460;13.910;2023-09-19T08:00:37;21.00;99.90
25811;DHT22;13645;52.460;13.910;2023-09-19T08:03:05;21.10;99.90
25811;DHT22;13645;52.460;13.910;2023-09-19T08:05:42;21.10;1.00
25811;DHT22;13645;52.460;13.910;2023-09-19T08:08:13;21.20;1.00
25811;DHT22;13645;52.460;13.910;2023-09-19T08:10:41;21.40;99.90
25811;DHT22;13645;52.460;13.910;2023-09-19T08:13:12;21.60;99.90
25811;DHT22;13645;52.460;13.910;2023-09-19T08:15:43;21.70;96.90
25811;DHT22;13645;52.460;13.910;2023-09-19T08:18:14;21.20;31.80
25811;DHT22;13645;52.460;13.910;2023-09-19T08:20:42;21.50;97.70
25811;DHT22;13645;52.460;13.910;2023-09-19T08:23:12;21.10;1.00
25811;DHT22;13645;52.460;13.910;2023-09-19T08:25:42;20.90;1.00
25811;DHT22;13645;52.460;13.910;2023-09-19T08:28:12;20.30;1.00
25811;DHT22;13645;52.460;13.910;2023-09-19T08:30:47;20.30;43.20
25811;DHT22;13645;52.460;13.910;2023-09-19T08:33:13;20.50;99.90
25811;DHT22;13645;52.460;13.910;2023-09-19T08:35:43;20.20;49.10
25811;DHT22;13645;52.460;13.910;2023-09-19T08:38:12;20.10;99.90
25811;DHT22;13645;52.460;13.910;2023-09-19T08:40:40;20.20;1.00
25811;DHT22;13645;52.460;13.910;2023-09-19T08:43:09;20.10;1.00
25811;DHT22;13645;52.460;13.910;2023-09-19T08:45:36;20.10;1.00
25811;DHT22;13645;52.460;13.910;2023-09-19T08:48:31;20.30;17.40
25811;DHT22;13645;52.460;13.910;2023-09-19T08:51:03;20.90;1.00
25811;DHT22;13645;52.460;13.910;2023-09-19T08:53:42;20.80;99.90
25811;DHT22;13645;52.460;13.910;2023-09-19T08:56:11;20.60;99.90
25811;DHT22;13645;52.460;13.910;2023-09-19T09:01:16;20.20;99.90
25811;DHT22;13645;52.460;13.910;2023-09-19T09:03:44;20.00;99.90
25811;DHT22;13645;52.460;13.910;2023-09-19T09:06:19;20.10;99.90
25811;DHT22;13645;52.460;13.910;2023-09-19T09:08:50;20.40;99.90
25811;DHT22;13645;52.460;13.910;2023-09-19T09:11:18;20.90;1.00
25811;DHT22;13645;52.460;13.910;2023-09-19T09:13:47;21.20;1.00
25811;DHT22;13645;52.460;13.910;2023-09-19T09:16:18;21.40;99.90
25811;DHT22;13645;52.460;13.910;2023-09-19T09:18:49;21.30;99.90
25811;DHT22;13645;52.460;13.910;2023-09-19T09:21:22;21.20;99.90
25811;DHT22;13645;52.460;13.910;2023-09-19T09:23:49;21.00;99.90
25811;DHT22;13645;52.460;13.910;2023-09-19T09:26:41;21.20;99.90
25811;DHT22;13645;52.460;13.910;2023-09-19T09:29:14;20.70;63.80
25811;DHT22;13645;52.460;13.910;2023-09-19T09:31:47;20.20;99.90
25811;DHT22;13645;52.460;13.910;2023-09-19T09:34:15;20.10;99.90
25811;DHT22;13645;52.460;13.910;2023-09-19T09:36:48;20.20;99.90
25811;DHT22;13645;52.460;13.910;2023-09-19T09:39:15;20.40;99.90
25811;DHT22;13645;52.460;13.910;2023-09-19T09:41:45;20.60;99.90
25811;DHT22;13645;52.460;13.910;2023-09-19T09:44:14;20.80;99.90
25811;DHT22;13645;52.460;13.910;2023-09-19T09:46:46;21.00;1.00
25811;DHT22;13645;52.460;13.910;2023-09-19T09:49:23;21.10;1.00
25811;DHT22;13645;52.460;13.910;2023-09-19T09:52:03;21.00;1.00
25811;DHT22;13645;52.460;13.910;2023-09-19T09:55:05;20.70;1.00
25811;DHT22;13645;52.460;13.910;2023-09-19T09:57:43;20.40;1.00
25811;DHT22;13645;52.460;13.910;2023-09-19T10:00:11;20.30;1.00
25811;DHT22;13645;52.460;13.910;2023-09-19T10:02:47;20.10;1.00
25811;DHT22;13645;52.460;13.910;2023-09-19T10:05:20;20.20;1.00
25811;DHT22;13645;52.460;13.910;2023-09-19T10:07:48;20.40;1.00
25811;DHT22;13645;52.460;13.910;2023-09-19T10:10:33;20.50;1.00
25811;DHT22;13645;52.460;13.910;2023-09-19T10:13:22;20.50;1.00
25811;DHT22;13645;52.460;13.910;2023-09-19T10:15:52;20.60;1.00
25811;DHT22;13645;52.460;13.910;2023-09-19T10:18:26;20.60;99.90
25811;DHT22;13645;52.460;13.910;2023-09-19T10:20:56;20.60;99.90
25811;DHT22;13645;52.460;13.910;2023-09-19T10:23:32;20.60;99.90
25811;DHT22;13645;52.460;13.910;2023-09-19T10:26:01;20.40;99.90
25811;DHT22;13645;52.460;13.910;2023-09-19T10:28:30;20.40;99.90
25811;DHT22;13645;52.460;13.910;2023-09-19T10:31:01;20.20;99.90
25811;DHT22;13645;52.460;13.910;2023-09-19T10:33:35;20.10;99.90
25811;DHT22;13645;52.460;13.910;2023-09-19T10:36:05;19.90;99.90
25811;DHT22;13645;52.460;13.910;2023-09-19T10:38:35;19.90;99.90
25811;DHT22;13645;52.460;13.910;2023-09-19T10:41:08;20.00;99.90
25811;DHT22;13645;52.460;13.910;2023-09-19T10:43:38;20.30;99.90
25811;DHT22;13645;52.460;13.910;2023-09-19T10:46:09;20.50;99.90
25811;DHT22;13645;52.460;13.910;2023-09-19T10:48:41;20.70;99.90
25811;DHT22;13645;52.460;13.910;2023-09-19T10:51:14;20.70;99.90
25811;DHT22;13645;52.460;13.910;2023-09-19T10:56:24;21.20;43.60
25811;DHT22;13645;52.460;13.910;2023-09-19T10:59:10;21.30;59.20
25811;DHT22;13645;52.460;13.910;2023-09-19T11:01:48;21.40;1.00
25811;DHT22;13645;52.460;13.910;2023-09-19T11:04:29;21.60;1.00
25811;DHT22;13645;52.460;13.910;2023-09-19T11:10:01;22.60;1.00
25811;DHT22;13645;52.460;13.910;2023-09-19T11:15:03;22.80;1.00
25811;DHT22;13645;52.460;13.910;2023-09-19T11:17:43;22.80;1.00
25811;DHT22;13645;52.460;13.910;2023-09-19T11:25:44;23.20;1.00
25811;DHT22;13645;52.460;13.910;2023-09-19T11:30:54;23.20;99.90
25811;DHT22;13645;52.460;13.910;2023-09-19T11:33:27;23.30;99.90
25811;DHT22;13645;52.460;13.910;2023-09-19T11:36:08;23.30;99.90
25811;DHT22;13645;52.460;13.910;2023-09-19T11:41:38;23.00;99.90
25811;DHT22;13645;52.460;13.910;2023-09-19T11:46:54;22.70;99.90
25811;DHT22;13645;52.460;13.910;2023-09-19T11:49:33;23.00;99.90
25811;DHT22;13645;52.460;13.910;2023-09-19T11:52:01;23.50;99.90
25811;DHT22;13645;52.460;13.910;2023-09-19T11:54:32;23.40;99.90
25811;DHT22;13645;52.460;13.910;2023-09-19T11:57:00;23.40;99.90
25811;DHT22;13645;52.460;13.910;2023-09-19T11:59:29;23.30;99.90
25811;DHT22;13645;52.460;13.910;2023-09-19T12:01:57;23.50;99.90
25811;DHT22;13645;52.460;13.910;2023-09-19T12:07:09;24.00;99.90
25811;DHT22;13645;52.460;13.910;2023-09-19T12:09:45;24.00;99.90
25811;DHT22;13645;52.460;13.910;2023-09-19T12:12:25;23.70;99.90
25811;DHT22;13645;52.460;13.910;2023-09-19T12:14:59;23.20;99.90
25811;DHT22;13645;52.460;13.910;2023-09-19T12:17:42;22.80;99.90
25811;DHT22;13645;52.460;13.910;2023-09-19T12:20:10;22.70;99.90
25811;DHT22;13645;52.460;13.910;2023-09-19T12:25:14;22.80;99.90
25811;DHT22;13645;52.460;13.910;2023-09-19T12:27:44;22.80;99.90
25811;DHT22;13645;52.460;13.910;2023-09-19T12:30:16;22.70;99.90
25811;DHT22;13645;52.460;13.910;2023-09-19T12:33:05;22.60;99.90
25811;DHT22;13645;52.460;13.910;2023-09-19T12:35:33;22.60;99.90
25811;DHT22;13645;52.460;13.910;2023-09-19T12:38:03;22.50;99.90
25811;DHT22;13645;52.460;13.910;2023-09-19T12:40:34;22.50;99.90
25811;DHT22;13645;52.460;13.910;2023-09-19T12:43:05;22.60;99.90
25811;DHT22;13645;52.460;13.910;2023-09-19T12:45:35;22.70;99.90
25811;DHT22;13645;52.460;13.910;2023-09-19T12:48:24;22.70;99.90
25811;DHT22;13645;52.460;13.910;2023-09-19T12:51:09;22.60;99.90
25811;DHT22;13645;52.460;13.910;2023-09-19T12:53:45;22.60;99.90
25811;DHT22;13645;52.460;13.910;2023-09-19T12:56:17;22.50;99.90
25811;DHT22;13645;52.460;13.910;2023-09-19T13:01:24;22.50;99.90
25811;DHT22;13645;52.460;13.910;2023-09-19T13:04:14;22.50;99.90
25811;DHT22;13645;52.460;13.910;2023-09-19T13:06:56;22.60;99.90
25811;DHT22;13645;52.460;13.910;2023-09-19T13:09:28;22.60;99.90
25811;DHT22;13645;52.460;13.910;2023-09-19T13:12:01;22.50;99.90
25811;DHT22;13645;52.460;13.910;2023-09-19T13:14:30;22.60;99.90
25811;DHT22;13645;52.460;13.910;2023-09-19T13:17:04;22.70;99.90
25811;DHT22;13645;52.460;13.910;2023-09-19T13:19:40;22.70;99.90
25811;DHT22;13645;52.460;13.910;2023-09-19T13:22:43;22.60;99.90
25811;DHT22;13645;52.460;13.910;2023-09-19T13:25:17;22.60;99.90
25811;DHT22;13645;52.460;13.910;2023-09-19T13:30:22;22.60;99.90
25811;DHT22;13645;52.460;13.910;2023-09-19T13:32:52;22.60;99.90
25811;DHT22;13645;52.460;13.910;2023-09-19T13:35:20;22.70;99.90
25811;DHT22;13645;52.460;13.910;2023-09-19T13:37:47;22.80;99.90
25811;DHT22;13645;52.460;13.910;2023-09-19T13:40:16;22.60;99.90
25811;DHT22;13645;52.460;13.910;2023-09-19T13:42:43;22.60;99.90
25811;DHT22;13645;52.460;13.910;2023-09-19T13:45:10;22.50;99.90
25811;DHT22;13645;52.460;13.910;2023-09-19T13:47:40;22.30;99.90
25811;DHT22;13645;52.460;13.910;2023-09-19T13:50:08;22.40;99.90
25811;DHT22;13645;52.460;13.910;2023-09-19T13:52:35;22.50;99.90
25811;DHT22;13645;52.460;13.910;2023-09-19T13:55:02;22.50;99.90
25811;DHT22;13645;52.460;13.910;2023-09-19T13:57:30;22.50;99.90
25811;DHT22;13645;52.460;13.910;2023-09-19T13:59:57;22.40;99.90
25811;DHT22;13645;52.460;13.910;2023-09-19T14:02:24;22.30;99.90
25811;DHT22;13645;52.460;13.910;2023-09-19T14:04:52;22.20;99.90
25811;DHT22;13645;52.460;13.910;2023-09-19T14:07:24;22.10;99.90
25811;DHT22;13645;52.460;13.910;2023-09-19T14:09:52;22.00;99.90
25811;DHT22;13645;52.460;13.910;2023-09-19T14:12:19;21.90;93.00
25811;DHT22;13645;52.460;13.910;2023-09-19T14:14:46;21.70;95.90
25811;DHT22;13645;52.460;13.910;2023-09-19T14:17:13;21.80;99.90
25811;DHT22;13645;52.460;13.910;2023-09-19T14:19:41;21.90;99.90
25811;DHT22;13645;52.460;13.910;2023-09-19T14:22:12;21.90;99.70
25811;DHT22;13645;52.460;13.910;2023-09-19T14:24:40;21.90;98.90
25811;DHT22;13645;52.460;13.910;2023-09-19T14:27:07;21.90;93.80
25811;DHT22;13645;52.460;13.910;2023-09-19T14:29:36;21.80;93.30
25811;DHT22;13645;52.460;13.910;2023-09-19T14:32:03;21.80;99.90
25811;DHT22;13645;52.460;13.910;2023-09-19T14:34:30;21.80;93.00
25811;DHT22;13645;52.460;13.910;2023-09-19T14:36:57;21.70;94.20
25811;DHT22;13645;52.460;13.910;2023-09-19T14:39:24;21.70;99.90
25811;DHT22;13645;52.460;13.910;2023-09-19T14:41:51;21.70;95.30
25811;DHT22;13645;52.460;13.910;2023-09-19T14:44:21;21.70;97.40
25811;DHT22;13645;52.460;13.910;2023-09-19T14:46:51;21.70;98.90
25811;DHT22;13645;52.460;13.910;2023-09-19T14:49:18;21.60;95.90
25811;DHT22;13645;52.460;13.910;2023-09-19T14:51:45;21.60;93.10
25811;DHT22;13645;52.460;13.910;2023-09-19T14:54:14;21.50;87.50
25811;DHT22;13645;52.460;13.910;2023-09-19T14:56:44;21.40;97.60
25811;DHT22;13645;52.460;13.910;2023-09-19T14:59:22;21.40;97.50
25811;DHT22;13645;52.460;13.910;2023-09-19T15:01:51;21.40;99.90
25811;DHT22;13645;52.460;13.910;2023-09-19T15:04:21;21.40;99.60
25811;DHT22;13645;52.460;13.910;2023-09-19T15:06:48;21.30;97.60
25811;DHT22;13645;52.460;13.910;2023-09-19T15:09:16;21.30;99.30
25811;DHT22;13645;52.460;13.910;2023-09-19T15:11:45;21.10;99.00
25811;DHT22;13645;52.460;13.910;2023-09-19T15:14:12;21.10;99.90
25811;DHT22;13645;52.460;13.910;2023-09-19T15:16:39;21.00;99.90
25811;DHT22;13645;52.460;13.910;2023-09-19T15:19:07;21.00;99.90
25811;DHT22;13645;52.460;13.910;2023-09-19T15:21:34;20.90;99.90
25811;DHT22;13645;52.460;13.910;2023-09-19T15:24:04;20.90;99.90
25811;DHT22;13645;52.460;13.910;2023-09-19T15:26:31;20.80;99.90
25811;DHT22;13645;52.460;13.910;2023-09-19T15:29:00;20.70;99.90
25811;DHT22;13645;52.460;13.910;2023-09-19T15:31:27;20.70;99.90
25811;DHT22;13645;52.460;13.910;2023-09-19T15:33:55;20.70;99.90
25811;DHT22;13645;52.460;13.910;2023-09-19T15:36:22;20.60;99.90
25811;DHT22;13645;52.460;13.910;2023-09-19T15:39:06;20.60;99.90
25811;DHT22;13645;52.460;13.910;2023-09-19T15:41:35;20.50;99.90
25811;DHT22;13645;52.460;13.910;2023-09-19T15:44:10;20.40;99.90
25811;DHT22;13645;52.460;13.910;2023-09-19T15:46:37;20.40;99.90
25811;DHT22;13645;52.460;13.910;2023-09-19T15:49:04;20.40;99.90
25811;DHT22;13645;52.460;13.910;2023-09-19T15:51:31;20.40;99.90
25811;DHT22;13645;52.460;13.910;2023-09-19T15:53:57;20.30;99.90
25811;DHT22;13645;52.460;13.910;2023-09-19T15:56:26;20.20;99.90
25811;DHT22;13645;52.460;13.910;2023-09-19T15:58:55;20.20;99.90
25811;DHT22;13645;52.460;13.910;2023-09-19T16:01:22;20.20;99.90
25811;DHT22;13645;52.460;13.910;2023-09-19T16:03:52;20.20;99.90
25811;DHT22;13645;52.460;13.910;2023-09-19T16:06:21;20.20;99.90
25811;DHT22;13645;52.460;13.910;2023-09-19T16:08:51;20.20;99.90
25811;DHT22;13645;52.460;13.910;2023-09-19T16:11:19;20.10;99.90
25811;DHT22;13645;52.460;13.910;2023-09-19T16:13:48;20.10;99.90
25811;DHT22;13645;52.460;13.910;2023-09-19T16:16:21;20.20;99.90
25811;DHT22;13645;52.460;13.910;2023-09-19T16:18:54;20.10;99.90
25811;DHT22;13645;52.460;13.910;2023-09-19T16:21:30;20.10;99.90
25811;DHT22;13645;52.460;13.910;2023-09-19T16:23:59;20.00;99.90
25811;DHT22;13645;52.460;13.910;2023-09-19T16:26:27;20.00;99.90
25811;DHT22;13645;52.460;13.910;2023-09-19T16:28:56;20.00;99.90
25811;DHT22;13645;52.460;13.910;2023-09-19T16:31:28;19.90;99.90